createdAt,value
2023-02-20T00:00:32.408Z,5.50
2023-02-20T00:05:35.329Z,4.87
2023-02-20T00:10:38.096Z,4.67
2023-02-20T00:15:42.211Z,4.70
2023-02-20T00:20:45.013Z,6.50
2023-02-20T00:25:47.860Z,4.93
2023-02-20T00:30:51.999Z,6.57
2023-02-20T00:35:54.813Z,6.00
2023-02-20T00:40:57.620Z,6.03
2023-02-20T00:46:01.811Z,6.10
2023-02-20T00:51:04.922Z,4.80
2023-02-20T00:56:08.058Z,4.87
2023-02-20T01:01:12.386Z,4.83
2023-02-20T01:06:15.387Z,4.70
2023-02-20T01:11:18.316Z,5.27
2023-02-20T01:16:22.662Z,5.53
2023-02-20T01:21:25.721Z,4.30
2023-02-20T01:26:28.542Z,3.87
2023-02-20T01:31:32.858Z,4.67
2023-02-20T01:36:35.928Z,3.93
2023-02-20T01:41:38.878Z,4.20
2023-02-20T01:47:00.946Z,4.20
2023-02-20T01:52:08.981Z,5.40
2023-02-20T01:57:16.059Z,3.17
2023-02-20T02:02:21.316Z,4.00
2023-02-20T02:07:24.960Z,4.27
2023-02-20T02:12:27.957Z,5.10
2023-02-20T02:17:44.811Z,4.53
2023-02-20T02:23:29.061Z,4.27
2023-02-20T02:29:01.857Z,4.97
2023-02-20T02:34:35.893Z,6.33
2023-02-20T02:39:45.290Z,5.57
2023-02-20T02:44:55.025Z,5.30
2023-02-20T02:50:00.439Z,6.10
2023-02-20T02:55:05.404Z,5.17
2023-02-20T03:00:11.852Z,6.10
2023-02-20T03:05:20.160Z,4.13
2023-02-20T03:10:31.896Z,5.47
2023-02-20T03:15:37.702Z,5.73
2023-02-20T03:20:44.737Z,7.03
2023-02-20T03:25:52.797Z,5.43
2023-02-20T03:30:58.029Z,8.47
2023-02-20T03:36:19.694Z,6.47
2023-02-20T03:41:44.848Z,4.90
2023-02-20T03:46:49.663Z,5.90
2023-02-20T03:51:59.398Z,7.50
2023-02-20T03:57:14.611Z,5.10
2023-02-20T04:02:23.348Z,8.33
2023-02-20T04:07:30.110Z,5.27
2023-02-20T04:12:37.530Z,4.93
2023-02-20T04:17:45.513Z,6.00
2023-02-20T04:22:51.660Z,6.03
2023-02-20T04:27:56.326Z,4.83
2023-02-20T04:32:59.525Z,4.90
2023-02-20T04:38:02.421Z,5.77
2023-02-20T04:43:07.060Z,5.07
2023-02-20T04:48:11.008Z,6.70
2023-02-20T04:53:15.009Z,5.93
2023-02-20T04:58:19.410Z,5.23
2023-02-20T05:03:28.847Z,4.90
2023-02-20T05:08:32.150Z,6.67
2023-02-20T05:13:36.286Z,4.93
2023-02-20T05:18:39.102Z,7.93
2023-02-20T05:23:41.821Z,4.93
2023-02-20T05:28:45.964Z,4.40
2023-02-20T05:33:48.755Z,5.17
2023-02-20T05:38:51.586Z,7.20
2023-02-20T05:43:57.558Z,4.83
2023-02-20T05:49:00.306Z,4.87
2023-02-20T05:54:05.325Z,4.53
2023-02-20T05:59:09.553Z,4.77
2023-02-20T06:04:12.447Z,4.73
2023-02-20T06:09:17.657Z,4.87
2023-02-20T06:14:22.935Z,4.60
2023-02-20T06:19:26.495Z,5.43
2023-02-20T06:24:29.258Z,4.53
2023-02-20T06:29:33.394Z,6.83
2023-02-20T06:34:36.313Z,5.13
2023-02-20T06:39:43.023Z,3.90
2023-02-20T06:44:47.330Z,4.50
2023-02-20T06:49:53.264Z,4.57
2023-02-20T06:54:56.105Z,4.70
2023-02-20T07:00:00.366Z,3.83
2023-02-20T07:05:05.877Z,3.63
2023-02-20T07:10:09.313Z,3.57
2023-02-20T07:15:14.018Z,4.03
2023-02-20T07:20:17.094Z,3.53
2023-02-20T07:25:19.970Z,5.70
2023-02-20T07:30:25.397Z,4.67
2023-02-20T07:35:28.255Z,4.60
2023-02-20T07:40:39.920Z,5.30
2023-02-20T07:45:44.458Z,4.67
2023-02-20T07:50:47.299Z,5.43
2023-02-20T07:55:50.410Z,5.53
2023-02-20T08:00:54.748Z,6.30
2023-02-20T08:05:58.792Z,4.47
2023-02-20T08:11:09.005Z,5.60
2023-02-20T08:16:14.814Z,6.07
2023-02-20T08:21:17.708Z,5.53
2023-02-20T08:26:20.596Z,4.80
2023-02-20T08:31:32.181Z,5.00
2023-02-20T08:36:35.955Z,4.80
2023-02-20T08:41:45.840Z,4.43
2023-02-20T08:46:51.172Z,4.50
2023-02-20T08:51:55.622Z,4.20
2023-02-20T08:56:58.424Z,6.17
2023-02-20T09:02:02.622Z,3.73
2023-02-20T09:07:05.485Z,4.13
2023-02-20T09:12:09.112Z,4.57
2023-02-20T09:17:13.424Z,3.67
2023-02-20T09:22:18.040Z,5.93
2023-02-20T09:27:22.056Z,4.07
2023-02-20T09:32:26.371Z,4.27
2023-02-20T09:37:29.155Z,4.00
2023-02-20T09:42:36.860Z,3.53
2023-02-20T09:47:50.918Z,4.43
2023-02-20T09:53:00.003Z,3.73
2023-02-20T09:58:04.854Z,3.63
2023-02-20T10:03:20.062Z,3.83
2023-02-20T10:08:23.773Z,3.50
2023-02-20T10:13:37.732Z,4.57
2023-02-20T10:18:47.506Z,4.03
2023-02-20T10:24:04.859Z,3.73
2023-02-20T10:29:16.562Z,2.63
2023-02-20T10:34:24.587Z,4.83
2023-02-20T10:39:27.953Z,3.60
2023-02-20T10:44:40.270Z,3.60
2023-02-20T10:49:58.020Z,4.57
2023-02-20T10:55:07.282Z,4.20
2023-02-20T11:00:14.874Z,3.93
2023-02-20T11:05:21.209Z,4.40
2023-02-20T11:10:24.065Z,4.13
2023-02-20T11:15:30.085Z,5.63
2023-02-20T11:20:46.333Z,5.10
2023-02-20T11:25:49.438Z,4.40
2023-02-20T11:31:01.118Z,4.37
2023-02-20T11:36:14.568Z,4.00
2023-02-20T11:41:27.268Z,3.93
2023-02-20T11:46:30.293Z,3.87
2023-02-20T11:51:39.072Z,3.10
2023-02-20T11:56:55.858Z,3.33
2023-02-20T12:02:13.502Z,4.27
2023-02-20T12:07:27.238Z,3.87
2023-02-20T12:12:31.568Z,3.97
2023-02-20T12:17:36.221Z,2.53
2023-02-20T12:22:43.790Z,3.00
2023-02-20T12:28:04.360Z,2.83
2023-02-20T12:33:20.193Z,3.53
2023-02-20T12:38:41.651Z,3.30
2023-02-20T12:43:49.023Z,3.30
2023-02-20T12:49:18.240Z,3.07
2023-02-20T12:54:32.089Z,4.13
2023-02-20T12:59:38.512Z,3.80
2023-02-20T13:04:45.449Z,4.07
2023-02-20T13:10:14.457Z,3.43
2023-02-20T13:15:28.852Z,3.43
2023-02-20T13:20:52.493Z,3.23
2023-02-20T13:26:00.906Z,2.80
2023-02-20T13:31:18.721Z,3.50
2023-02-20T13:36:42.558Z,3.77
2023-02-20T13:42:02.377Z,2.80
2023-02-20T13:47:28.480Z,2.67
2023-02-20T13:52:39.719Z,3.40
2023-02-20T13:57:48.826Z,3.27
2023-02-20T14:02:52.040Z,3.50
2023-02-20T14:07:58.390Z,4.50
2023-02-20T14:13:05.250Z,3.00
2023-02-20T14:18:17.099Z,3.97
2023-02-20T14:23:25.797Z,3.23
2023-02-20T14:28:31.165Z,3.53
2023-02-20T14:33:34.885Z,2.93
2023-02-20T14:38:47.723Z,3.33
2023-02-20T14:43:57.269Z,3.23
2023-02-20T14:49:08.975Z,2.77
2023-02-20T14:54:20.582Z,2.93
2023-02-20T14:59:26.779Z,2.37
2023-02-20T15:04:30.048Z,3.33
2023-02-20T15:09:40.420Z,2.90
2023-02-20T15:14:44.990Z,3.10
2023-02-20T15:19:48.570Z,3.67
2023-02-20T15:24:51.508Z,2.73
2023-02-20T15:30:14.971Z,3.57
2023-02-20T15:35:22.011Z,4.70
2023-02-20T15:40:27.829Z,3.87
2023-02-20T15:45:32.314Z,3.67
2023-02-20T15:50:35.643Z,3.90
2023-02-20T15:55:38.445Z,5.17
2023-02-20T16:00:42.582Z,5.20
2023-02-20T16:05:45.469Z,4.10
2023-02-20T16:10:48.313Z,4.37
2023-02-20T16:15:52.539Z,4.50
2023-02-20T16:20:55.707Z,4.43
2023-02-20T16:25:58.658Z,4.60
2023-02-20T16:31:02.902Z,5.97
2023-02-20T16:36:08.882Z,4.40
2023-02-20T16:41:14.580Z,4.17
2023-02-20T16:46:37.750Z,4.23
2023-02-20T16:51:41.103Z,3.20
2023-02-20T16:56:44.015Z,4.37
2023-02-20T17:01:48.418Z,5.40
2023-02-20T17:06:51.559Z,5.17
2023-02-20T17:11:54.349Z,3.57
2023-02-20T17:16:58.525Z,5.27
2023-02-20T17:22:01.362Z,4.37
2023-02-20T17:27:04.160Z,4.03
2023-02-20T17:32:08.431Z,6.77
2023-02-20T17:37:11.571Z,4.47
2023-02-20T17:42:14.522Z,4.93
2023-02-20T17:47:18.661Z,5.57
2023-02-20T17:52:22.545Z,4.87
2023-02-20T17:57:26.554Z,5.70
2023-02-20T18:02:30.756Z,4.77
2023-02-20T18:07:33.615Z,5.97
2023-02-20T18:12:36.601Z,3.90
2023-02-20T18:17:40.716Z,4.67
2023-02-20T18:22:43.574Z,4.40
2023-02-20T18:27:46.404Z,4.37
2023-02-20T18:32:50.546Z,7.10
2023-02-20T18:37:53.287Z,5.27
2023-02-20T18:42:56.122Z,6.13
2023-02-20T18:48:00.412Z,6.67
2023-02-20T18:53:03.177Z,5.83
2023-02-20T18:58:05.928Z,5.77
2023-02-20T19:03:10.115Z,5.00
2023-02-20T19:08:12.892Z,4.30
2023-02-20T19:13:15.654Z,4.23
2023-02-20T19:18:19.893Z,5.33
2023-02-20T19:23:22.650Z,6.03
2023-02-20T19:28:25.431Z,4.37
2023-02-20T19:33:30.166Z,5.10
2023-02-20T19:38:34.696Z,4.73
2023-02-20T19:43:37.528Z,4.93
2023-02-20T19:48:41.699Z,3.50
2023-02-20T19:53:44.528Z,4.80
2023-02-20T19:58:47.398Z,5.63
2023-02-20T20:03:51.506Z,4.67
2023-02-20T20:09:11.669Z,4.70
2023-02-20T20:14:17.069Z,5.17
2023-02-20T20:19:21.650Z,5.63
2023-02-20T20:24:24.504Z,6.07
2023-02-20T20:29:27.357Z,5.73
2023-02-20T20:34:31.466Z,6.13
2023-02-20T20:39:34.282Z,6.70
2023-02-20T20:44:37.053Z,5.63
2023-02-20T20:49:41.238Z,5.93
2023-02-20T20:54:44.154Z,5.30
2023-02-20T20:59:47.332Z,4.87
2023-02-20T21:04:57.944Z,6.53
2023-02-20T21:10:12.935Z,4.87
2023-02-20T21:15:15.792Z,5.17
2023-02-20T21:20:22.856Z,5.53
2023-02-20T21:25:26.034Z,5.77
2023-02-20T21:30:28.923Z,5.30
2023-02-20T21:35:33.054Z,5.70
2023-02-20T21:40:35.826Z,5.37
2023-02-20T21:45:38.963Z,5.60
2023-02-20T21:50:43.096Z,5.43
2023-02-20T21:55:46.079Z,6.40
2023-02-20T22:00:48.285Z,5.53
2023-02-20T22:05:51.286Z,5.13
2023-02-20T22:11:11.662Z,6.00
2023-02-20T22:16:36.872Z,5.93
2023-02-20T22:21:58.658Z,5.97
2023-02-20T22:27:19.176Z,5.97
2023-02-20T22:32:40.380Z,5.20
2023-02-20T22:38:04.585Z,6.97
2023-02-20T22:43:25.145Z,7.33
2023-02-20T22:48:45.269Z,8.07
2023-02-20T22:54:07.102Z,7.77
2023-02-20T22:59:27.592Z,8.97
2023-02-20T23:04:47.859Z,7.70
2023-02-20T23:10:09.830Z,6.90
2023-02-20T23:15:30.308Z,6.03
2023-02-20T23:20:50.958Z,7.47
2023-02-20T23:26:13.017Z,6.73
2023-02-20T23:31:33.973Z,7.77
2023-02-20T23:36:54.506Z,6.73
2023-02-20T23:42:16.199Z,9.77
2023-02-20T23:47:36.644Z,7.23
2023-02-20T23:52:57.006Z,7.93
2023-02-20T23:58:18.736Z,7.73
